Ravenwood, South Carolina
Current Conditions -  °F | °C
As of 7:53 PM on Friday 24 Oct 2014 (Local Time) from KCUB Reporting Station
Clear Clear  
Wind Chill: 61°   Ceiling: Unl
Heat Index: 61°   Visibility: 10mi
Dew Point: 51°   Wind: 0mph
Humidity: 70%   Direction: NA
Pressure: 30"   Gusts: NA
Location:  34.025°N, 80.9562°W
Report Text: KCUB 242353Z AUTO 00000KT 10SM CLR 16/11 A3000 RMK AO2 SLP159 T01610106 10228 20161 53001
Loading
Personal Weather Stations






























Interactive Weather Map
Tropical Storm Tracking
New forecast layout! Learn more

10-Day Weather Forecast

Advertisements
Track Severe Weather on mobile